sensor_id;sensor_type;location;lat;lon;timestamp;temperature;humidity
67165;SHT31;54093;50.014;19.984;2023-05-19T00:06:40;9.42;86.04
67165;SHT31;54093;50.014;19.984;2023-05-19T00:16:01;9.43;86.16
67165;SHT31;54093;50.014;19.984;2023-05-19T00:25:22;9.47;86.10
67165;SHT31;54093;50.014;19.984;2023-05-19T00:34:43;9.46;85.92
67165;SHT31;54093;50.014;19.984;2023-05-19T00:44:05;9.43;86.02
67165;SHT31;54093;50.014;19.984;2023-05-19T00:53:26;9.46;85.89
67165;SHT31;54093;50.014;19.984;2023-05-19T01:02:48;9.44;85.78
67165;SHT31;54093;50.014;19.984;2023-05-19T01:12:14;9.43;85.86
67165;SHT31;54093;50.014;19.984;2023-05-19T01:31:27;9.43;85.73
67165;SHT31;54093;50.014;19.984;2023-05-19T01:40:49;9.44;85.73
67165;SHT31;54093;50.014;19.984;2023-05-19T01:50:11;9.42;85.83
67165;SHT31;54093;50.014;19.984;2023-05-19T02:00:01;9.44;85.73
67165;SHT31;54093;50.014;19.984;2023-05-19T02:19:04;9.37;85.86
67165;SHT31;54093;50.014;19.984;2023-05-19T02:28:24;9.36;85.92
67165;SHT31;54093;50.014;19.984;2023-05-19T02:37:47;9.33;85.77
67165;SHT31;54093;50.014;19.984;2023-05-19T02:47:08;9.36;85.91
67165;SHT31;54093;50.014;19.984;2023-05-19T02:56:29;9.36;85.78
67165;SHT31;54093;50.014;19.984;2023-05-19T03:05:50;9.33;85.68
67165;SHT31;54093;50.014;19.984;2023-05-19T03:15:11;9.30;85.65
67165;SHT31;54093;50.014;19.984;2023-05-19T03:24:34;9.33;85.86
67165;SHT31;54093;50.014;19.984;2023-05-19T03:33:56;9.36;86.06
67165;SHT31;54093;50.014;19.984;2023-05-19T03:43:17;9.39;86.28
67165;SHT31;54093;50.014;19.984;2023-05-19T03:52:38;9.36;85.91
67165;SHT31;54093;50.014;19.984;2023-05-19T04:01:59;9.39;85.68
67165;SHT31;54093;50.014;19.984;2023-05-19T04:11:20;9.39;85.92
67165;SHT31;54093;50.014;19.984;2023-05-19T04:20:41;9.39;86.08
67165;SHT31;54093;50.014;19.984;2023-05-19T04:30:02;9.43;86.46
67165;SHT31;54093;50.014;19.984;2023-05-19T04:39:23;9.50;86.49
67165;SHT31;54093;50.014;19.984;2023-05-19T04:48:44;9.49;86.75
67165;SHT31;54093;50.014;19.984;2023-05-19T04:58:05;9.54;86.86
67165;SHT31;54093;50.014;19.984;2023-05-19T05:07:26;9.57;86.89
67165;SHT31;54093;50.014;19.984;2023-05-19T05:16:48;9.63;86.74
67165;SHT31;54093;50.014;19.984;2023-05-19T05:26:16;9.70;86.95
67165;SHT31;54093;50.014;19.984;2023-05-19T05:35:37;9.76;87.04
67165;SHT31;54093;50.014;19.984;2023-05-19T05:44:58;9.77;86.79
67165;SHT31;54093;50.014;19.984;2023-05-19T05:54:20;9.83;86.68
67165;SHT31;54093;50.014;19.984;2023-05-19T06:03:42;9.81;86.58
67165;SHT31;54093;50.014;19.984;2023-05-19T06:13:04;9.84;86.79
67165;SHT31;54093;50.014;19.984;2023-05-19T06:22:25;9.88;86.62
67165;SHT31;54093;50.014;19.984;2023-05-19T06:31:47;9.88;86.43
67165;SHT31;54093;50.014;19.984;2023-05-19T06:41:08;9.87;86.53
67165;SHT31;54093;50.014;19.984;2023-05-19T06:50:29;9.93;86.71
67165;SHT31;54093;50.014;19.984;2023-05-19T06:59:50;10.01;86.92
67165;SHT31;54093;50.014;19.984;2023-05-19T07:09:11;10.16;86.93
67165;SHT31;54093;50.014;19.984;2023-05-19T07:18:32;10.38;87.20
67165;SHT31;54093;50.014;19.984;2023-05-19T07:27:53;10.45;86.48
67165;SHT31;54093;50.014;19.984;2023-05-19T07:37:14;10.39;85.56
67165;SHT31;54093;50.014;19.984;2023-05-19T07:46:36;10.55;86.44
67165;SHT31;54093;50.014;19.984;2023-05-19T07:55:57;10.66;86.76
67165;SHT31;54093;50.014;19.984;2023-05-19T08:05:18;10.72;86.67
67165;SHT31;54093;50.014;19.984;2023-05-19T08:14:39;10.80;86.57
67165;SHT31;54093;50.014;19.984;2023-05-19T08:24:00;10.94;86.68
67165;SHT31;54093;50.014;19.984;2023-05-19T08:33:21;11.03;86.12
67165;SHT31;54093;50.014;19.984;2023-05-19T08:42:45;11.15;85.74
67165;SHT31;54093;50.014;19.984;2023-05-19T09:01:56;11.34;85.54
67165;SHT31;54093;50.014;19.984;2023-05-19T09:11:18;11.39;84.76
67165;SHT31;54093;50.014;19.984;2023-05-19T09:20:40;11.36;84.51
67165;SHT31;54093;50.014;19.984;2023-05-19T09:30:08;11.49;84.96
67165;SHT31;54093;50.014;19.984;2023-05-19T09:39:30;11.62;84.66
67165;SHT31;54093;50.014;19.984;2023-05-19T09:48:56;11.73;84.39
67165;SHT31;54093;50.014;19.984;2023-05-19T09:58:17;11.68;83.48
67165;SHT31;54093;50.014;19.984;2023-05-19T10:07:43;11.76;83.79
67165;SHT31;54093;50.014;19.984;2023-05-19T10:17:14;11.85;83.47
67165;SHT31;54093;50.014;19.984;2023-05-19T10:26:35;11.85;83.02
67165;SHT31;54093;50.014;19.984;2023-05-19T10:45:56;12.00;82.47
67165;SHT31;54093;50.014;19.984;2023-05-19T11:05:08;12.14;82.78
67165;SHT31;54093;50.014;19.984;2023-05-19T11:14:31;12.21;82.71
67165;SHT31;54093;50.014;19.984;2023-05-19T11:23:52;12.33;82.22
67165;SHT31;54093;50.014;19.984;2023-05-19T11:33:13;12.42;82.69
67165;SHT31;54093;50.014;19.984;2023-05-19T11:42:35;12.49;82.12
67165;SHT31;54093;50.014;19.984;2023-05-19T11:51:56;12.44;81.17
67165;SHT31;54093;50.014;19.984;2023-05-19T12:01:22;12.42;80.62
67165;SHT31;54093;50.014;19.984;2023-05-19T12:10:48;12.36;81.33
67165;SHT31;54093;50.014;19.984;2023-05-19T12:20:11;12.48;81.53
67165;SHT31;54093;50.014;19.984;2023-05-19T12:29:33;12.61;81.82
67165;SHT31;54093;50.014;19.984;2023-05-19T12:38:54;12.61;81.54
67165;SHT31;54093;50.014;19.984;2023-05-19T12:48:15;12.78;81.76
67165;SHT31;54093;50.014;19.984;2023-05-19T12:57:37;12.89;80.77
67165;SHT31;54093;50.014;19.984;2023-05-19T13:06:58;12.78;81.08
67165;SHT31;54093;50.014;19.984;2023-05-19T13:16:19;12.72;80.88
67165;SHT31;54093;50.014;19.984;2023-05-19T13:25:40;12.72;81.53
67165;SHT31;54093;50.014;19.984;2023-05-19T13:35:01;12.82;80.82
67165;SHT31;54093;50.014;19.984;2023-05-19T13:44:22;12.79;80.45
67165;SHT31;54093;50.014;19.984;2023-05-19T13:53:45;12.72;80.68
67165;SHT31;54093;50.014;19.984;2023-05-19T14:03:06;12.67;80.89
67165;SHT31;54093;50.014;19.984;2023-05-19T14:12:28;12.71;80.12
67165;SHT31;54093;50.014;19.984;2023-05-19T14:21:49;12.69;80.12
67165;SHT31;54093;50.014;19.984;2023-05-19T14:31:11;12.68;80.29
67165;SHT31;54093;50.014;19.984;2023-05-19T14:40:32;12.61;80.29
67165;SHT31;54093;50.014;19.984;2023-05-19T14:49:53;12.62;79.85
67165;SHT31;54093;50.014;19.984;2023-05-19T14:59:13;12.65;80.49
67165;SHT31;54093;50.014;19.984;2023-05-19T15:08:35;12.61;79.98
67165;SHT31;54093;50.014;19.984;2023-05-19T15:17:57;12.64;79.21
67165;SHT31;54093;50.014;19.984;2023-05-19T15:27:18;12.49;79.99
67165;SHT31;54093;50.014;19.984;2023-05-19T15:36:40;12.45;80.45
67165;SHT31;54093;50.014;19.984;2023-05-19T15:46:01;12.37;80.94
67165;SHT31;54093;50.014;19.984;2023-05-19T15:55:24;12.33;81.25
67165;SHT31;54093;50.014;19.984;2023-05-19T16:04:45;12.26;81.32
67165;SHT31;54093;50.014;19.984;2023-05-19T16:14:06;12.20;81.31
67165;SHT31;54093;50.014;19.984;2023-05-19T16:23:26;12.24;81.19
67165;SHT31;54093;50.014;19.984;2023-05-19T16:32:47;12.20;81.22
67165;SHT31;54093;50.014;19.984;2023-05-19T16:42:08;12.21;81.65
67165;SHT31;54093;50.014;19.984;2023-05-19T16:51:29;12.24;81.52
67165;SHT31;54093;50.014;19.984;2023-05-19T17:00:51;12.21;81.43
67165;SHT31;54093;50.014;19.984;2023-05-19T17:10:12;12.12;81.52
67165;SHT31;54093;50.014;19.984;2023-05-19T17:19:33;12.09;81.65
67165;SHT31;54093;50.014;19.984;2023-05-19T17:28:55;12.03;81.70
67165;SHT31;54093;50.014;19.984;2023-05-19T17:38:16;12.03;82.12
67165;SHT31;54093;50.014;19.984;2023-05-19T17:47:37;12.04;82.12
67165;SHT31;54093;50.014;19.984;2023-05-19T17:57:00;11.99;82.00
67165;SHT31;54093;50.014;19.984;2023-05-19T18:06:23;11.99;82.01
67165;SHT31;54093;50.014;19.984;2023-05-19T18:15:44;11.94;81.46
67165;SHT31;54093;50.014;19.984;2023-05-19T18:25:05;11.86;81.73
67165;SHT31;54093;50.014;19.984;2023-05-19T18:34:26;11.85;82.05
67165;SHT31;54093;50.014;19.984;2023-05-19T18:43:49;11.83;82.16
67165;SHT31;54093;50.014;19.984;2023-05-19T18:53:10;11.80;82.24
67165;SHT31;54093;50.014;19.984;2023-05-19T19:02:31;11.75;82.36
67165;SHT31;54093;50.014;19.984;2023-05-19T19:11:52;11.75;82.22
67165;SHT31;54093;50.014;19.984;2023-05-19T19:21:13;11.70;82.37
67165;SHT31;54093;50.014;19.984;2023-05-19T19:30:34;11.69;82.47
67165;SHT31;54093;50.014;19.984;2023-05-19T19:39:55;11.70;82.64
67165;SHT31;54093;50.014;19.984;2023-05-19T19:49:16;11.70;82.76
67165;SHT31;54093;50.014;19.984;2023-05-19T19:58:36;11.68;82.78
67165;SHT31;54093;50.014;19.984;2023-05-19T20:07:57;11.61;82.66
67165;SHT31;54093;50.014;19.984;2023-05-19T20:17:18;11.55;82.46
67165;SHT31;54093;50.014;19.984;2023-05-19T20:26:39;11.57;82.77
67165;SHT31;54093;50.014;19.984;2023-05-19T20:36:00;11.55;82.93
67165;SHT31;54093;50.014;19.984;2023-05-19T20:45:21;11.54;83.09
67165;SHT31;54093;50.014;19.984;2023-05-19T20:54:43;11.52;83.08
67165;SHT31;54093;50.014;19.984;2023-05-19T21:04:04;11.48;83.44
67165;SHT31;54093;50.014;19.984;2023-05-19T21:13:27;11.49;83.36
67165;SHT31;54093;50.014;19.984;2023-05-19T21:22:48;11.46;83.49
67165;SHT31;54093;50.014;19.984;2023-05-19T21:32:09;11.42;83.70
67165;SHT31;54093;50.014;19.984;2023-05-19T21:41:30;11.39;83.69
67165;SHT31;54093;50.014;19.984;2023-05-19T21:50:55;11.36;83.52
67165;SHT31;54093;50.014;19.984;2023-05-19T22:00:17;11.34;83.67
67165;SHT31;54093;50.014;19.984;2023-05-19T22:09:38;11.34;83.74
67165;SHT31;54093;50.014;19.984;2023-05-19T22:18:59;11.30;83.90
67165;SHT31;54093;50.014;19.984;2023-05-19T22:28:20;11.30;84.00
67165;SHT31;54093;50.014;19.984;2023-05-19T22:37:41;11.30;84.18
67165;SHT31;54093;50.014;19.984;2023-05-19T22:47:02;11.25;84.37
67165;SHT31;54093;50.014;19.984;2023-05-19T22:56:23;11.31;84.57
67165;SHT31;54093;50.014;19.984;2023-05-19T23:05:43;11.27;84.84
67165;SHT31;54093;50.014;19.984;2023-05-19T23:15:06;11.22;84.96
67165;SHT31;54093;50.014;19.984;2023-05-19T23:24:27;11.22;84.94
67165;SHT31;54093;50.014;19.984;2023-05-19T23:33:48;11.21;84.93
67165;SHT31;54093;50.014;19.984;2023-05-19T23:43:08;11.22;84.84
67165;SHT31;54093;50.014;19.984;2023-05-19T23:52:29;11.25;84.79
